createdAt,value
2019-05-10T00:00:14.331Z,11.60
2019-05-10T00:03:00.818Z,11.60
2019-05-10T00:05:47.278Z,11.50
2019-05-10T00:08:33.374Z,11.50
2019-05-10T00:11:32.886Z,11.50
2019-05-10T00:14:09.584Z,11.50
2019-05-10T00:16:37.951Z,11.40
2019-05-10T00:19:06.250Z,11.40
2019-05-10T00:21:34.555Z,11.30
2019-05-10T00:24:04.334Z,11.20
2019-05-10T00:26:32.680Z,11.20
2019-05-10T00:29:01.105Z,11.20
2019-05-10T00:31:29.540Z,11.20
2019-05-10T00:33:57.871Z,11.20
2019-05-10T00:36:27.119Z,11.20
2019-05-10T00:38:55.469Z,11.30
2019-05-10T00:41:23.876Z,11.20
2019-05-10T00:43:54.546Z,11.20
2019-05-10T00:46:22.796Z,11.20
2019-05-10T00:48:51.146Z,11.20
2019-05-10T00:51:19.490Z,11.20
2019-05-10T00:53:47.855Z,11.10
2019-05-10T00:56:16.151Z,11.10
2019-05-10T00:58:44.931Z,11.10
2019-05-10T01:01:13.268Z,11.10
2019-05-10T01:03:42.859Z,11.00
2019-05-10T01:06:11.186Z,11.00
2019-05-10T01:08:39.806Z,11.00
2019-05-10T01:11:08.057Z,11.00
2019-05-10T01:13:36.350Z,11.00
2019-05-10T01:16:04.711Z,11.00
2019-05-10T01:18:33.287Z,11.00
2019-05-10T01:21:01.509Z,11.00
2019-05-10T01:23:29.800Z,11.00
2019-05-10T01:25:58.059Z,11.00
2019-05-10T01:28:26.692Z,11.00
2019-05-10T01:30:54.949Z,10.90
2019-05-10T01:33:24.047Z,10.90
2019-05-10T01:35:52.285Z,10.90
2019-05-10T01:38:20.538Z,10.80
2019-05-10T01:40:48.803Z,10.70
2019-05-10T01:43:17.097Z,10.70
2019-05-10T01:45:45.371Z,10.70
2019-05-10T01:48:13.662Z,10.60
2019-05-10T01:50:41.965Z,10.60
2019-05-10T01:53:10.401Z,10.60
2019-05-10T01:55:51.743Z,10.60
2019-05-10T01:58:08.640Z,10.70
2019-05-10T02:00:36.892Z,10.70
2019-05-10T02:03:05.195Z,10.70
2019-05-10T02:05:33.476Z,10.60
2019-05-10T02:08:01.785Z,10.70
2019-05-10T02:10:30.105Z,10.70
2019-05-10T02:12:58.439Z,10.70
2019-05-10T02:15:26.703Z,10.70
2019-05-10T02:17:54.942Z,10.70
2019-05-10T02:20:23.250Z,10.70
2019-05-10T02:22:51.597Z,10.80
2019-05-10T02:25:19.848Z,10.80
2019-05-10T02:27:48.109Z,10.70
2019-05-10T02:30:16.365Z,10.70
2019-05-10T02:32:48.023Z,10.80
2019-05-10T02:35:16.977Z,10.80
2019-05-10T02:37:45.221Z,10.70
2019-05-10T02:40:14.324Z,10.70
2019-05-10T02:42:42.638Z,10.80
2019-05-10T02:45:11.019Z,10.70
2019-05-10T02:47:39.373Z,10.60
2019-05-10T02:50:08.186Z,10.60
2019-05-10T02:52:36.519Z,10.50
2019-05-10T02:55:05.260Z,10.50
2019-05-10T02:57:33.517Z,10.50
2019-05-10T03:00:03.375Z,10.60
2019-05-10T03:02:32.205Z,10.60
2019-05-10T03:05:00.523Z,10.60
2019-05-10T03:07:32.751Z,10.60
2019-05-10T03:10:01.600Z,10.70
2019-05-10T03:12:29.872Z,10.70
2019-05-10T03:14:59.505Z,10.70
2019-05-10T03:17:28.352Z,10.60
2019-05-10T03:19:56.934Z,10.70
2019-05-10T03:22:25.688Z,10.70
2019-05-10T03:24:54.208Z,10.70
2019-05-10T03:27:22.597Z,10.60
2019-05-10T03:29:51.059Z,10.60
2019-05-10T03:32:19.510Z,10.70
2019-05-10T03:34:47.773Z,10.60
2019-05-10T03:37:16.072Z,10.60
2019-05-10T03:39:44.329Z,10.60
2019-05-10T03:42:12.653Z,10.60
2019-05-10T03:44:40.959Z,10.70
2019-05-10T03:47:11.030Z,10.70
2019-05-10T03:49:39.305Z,10.70
2019-05-10T03:52:07.582Z,10.70
2019-05-10T03:54:35.840Z,10.60
2019-05-10T03:57:12.947Z,10.60
2019-05-10T03:59:34.160Z,10.60
2019-05-10T04:02:02.464Z,10.60
2019-05-10T04:04:30.804Z,10.70
2019-05-10T04:06:59.867Z,10.60
2019-05-10T04:09:28.175Z,10.50
2019-05-10T04:11:56.459Z,10.50
2019-05-10T04:14:24.781Z,10.50
2019-05-10T04:16:53.154Z,10.50
2019-05-10T04:19:22.466Z,10.60
2019-05-10T04:21:50.752Z,10.60
2019-05-10T04:24:19.072Z,10.60
2019-05-10T04:26:47.409Z,10.60
2019-05-10T04:29:15.812Z,10.50
2019-05-10T04:31:44.133Z,10.50
2019-05-10T04:34:12.496Z,10.40
2019-05-10T04:36:40.786Z,10.40
2019-05-10T04:39:09.033Z,10.50
2019-05-10T04:41:37.379Z,10.60
2019-05-10T04:44:05.660Z,10.60
2019-05-10T04:46:34.463Z,10.60
2019-05-10T04:49:02.800Z,10.50
2019-05-10T04:51:31.192Z,10.60
2019-05-10T04:53:59.540Z,10.60
2019-05-10T04:56:27.869Z,10.60
2019-05-10T04:58:56.200Z,10.60
2019-05-10T05:01:24.565Z,10.60
2019-05-10T05:03:52.922Z,10.70
2019-05-10T05:06:21.344Z,10.60
2019-05-10T05:08:49.648Z,10.60
2019-05-10T05:11:19.107Z,10.50
2019-05-10T05:13:47.378Z,10.50
2019-05-10T05:16:15.677Z,10.60
2019-05-10T05:18:43.965Z,10.50
2019-05-10T05:21:12.276Z,10.60
2019-05-10T05:23:40.546Z,10.50
2019-05-10T05:26:08.882Z,10.50
2019-05-10T05:28:37.173Z,10.50
2019-05-10T05:31:05.420Z,10.50
2019-05-10T05:33:34.615Z,10.50
2019-05-10T05:36:04.431Z,10.60
2019-05-10T05:38:33.129Z,10.40
2019-05-10T05:41:03.984Z,10.40
2019-05-10T05:43:33.160Z,10.40
2019-05-10T05:46:03.403Z,10.50
2019-05-10T05:48:40.527Z,10.50
2019-05-10T05:51:04.959Z,10.50
2019-05-10T05:53:35.915Z,10.50
2019-05-10T05:56:12.663Z,10.50
2019-05-10T05:58:38.006Z,10.50
2019-05-10T06:01:04.621Z,10.50
2019-05-10T06:03:35.502Z,10.60
2019-05-10T06:06:15.385Z,10.60
2019-05-10T06:08:33.814Z,10.60
2019-05-10T06:11:03.265Z,10.70
2019-05-10T06:13:32.526Z,10.80
2019-05-10T06:16:06.449Z,10.90
2019-05-10T06:18:31.185Z,10.90
2019-05-10T06:20:59.455Z,10.60
2019-05-10T06:23:29.166Z,10.60
2019-05-10T06:25:57.868Z,10.60
2019-05-10T06:28:54.865Z,10.60
2019-05-10T06:30:56.340Z,10.50
2019-05-10T06:33:24.752Z,10.40
2019-05-10T06:35:55.994Z,10.40
2019-05-10T06:38:24.276Z,10.40
2019-05-10T06:40:52.919Z,10.40
2019-05-10T06:43:21.595Z,10.40
2019-05-10T06:45:52.564Z,10.30
2019-05-10T06:48:26.807Z,10.30
2019-05-10T06:50:50.041Z,10.40
2019-05-10T06:53:18.396Z,10.40
2019-05-10T06:55:46.763Z,10.30
2019-05-10T06:58:15.111Z,10.10
2019-05-10T07:00:45.401Z,10.10
2019-05-10T07:03:13.551Z,10.10
2019-05-10T07:05:41.837Z,10.20
2019-05-10T07:08:19.582Z,10.10
2019-05-10T07:10:40.130Z,10.10
2019-05-10T07:13:08.455Z,10.20
2019-05-10T07:15:41.905Z,10.20
2019-05-10T07:18:06.771Z,10.10
2019-05-10T07:20:35.108Z,10.00
2019-05-10T07:23:06.078Z,10.10
2019-05-10T07:25:37.648Z,10.10
2019-05-10T07:28:09.285Z,10.30
2019-05-10T07:30:35.872Z,10.40
2019-05-10T07:33:05.745Z,10.40
2019-05-10T07:35:36.805Z,10.30
2019-05-10T07:38:04.145Z,10.40
2019-05-10T07:40:32.502Z,10.50
2019-05-10T07:43:01.440Z,10.60
2019-05-10T07:45:29.751Z,10.70
2019-05-10T07:48:02.488Z,10.80
2019-05-10T07:50:28.086Z,10.80
2019-05-10T07:52:56.309Z,11.00
2019-05-10T07:55:29.515Z,11.30
2019-05-10T07:57:59.005Z,11.40
2019-05-10T08:00:26.022Z,11.70
2019-05-10T08:03:02.356Z,12.00
2019-05-10T08:05:24.342Z,12.10
2019-05-10T08:07:52.758Z,12.20
2019-05-10T08:10:21.432Z,12.30
2019-05-10T08:12:50.233Z,12.30
2019-05-10T08:15:19.514Z,12.20
2019-05-10T08:17:50.876Z,12.60
2019-05-10T08:20:30.665Z,12.50
2019-05-10T08:22:48.419Z,12.30
2019-05-10T08:25:16.799Z,12.50
2019-05-10T08:27:50.401Z,12.60
2019-05-10T08:30:25.210Z,12.60
2019-05-10T08:32:49.324Z,12.80
2019-05-10T08:35:20.168Z,12.60
2019-05-10T08:37:48.883Z,12.80
2019-05-10T08:40:19.794Z,12.60
2019-05-10T08:42:54.279Z,12.60
2019-05-10T08:45:17.171Z,12.40
2019-05-10T08:47:45.504Z,12.60
2019-05-10T08:50:29.328Z,12.40
2019-05-10T08:52:44.832Z,12.50
2019-05-10T08:55:13.617Z,12.30
2019-05-10T08:57:44.582Z,12.30
2019-05-10T09:00:13.033Z,12.50
2019-05-10T09:02:42.697Z,12.50
2019-05-10T09:05:12.428Z,12.50
2019-05-10T09:07:44.986Z,12.50
2019-05-10T09:10:12.774Z,12.70
2019-05-10T09:12:50.527Z,13.00
2019-05-10T09:15:14.806Z,13.20
2019-05-10T09:17:43.246Z,13.30
2019-05-10T09:20:20.441Z,13.40
2019-05-10T09:22:42.427Z,13.30
2019-05-10T09:25:12.850Z,13.20
2019-05-10T09:27:43.132Z,13.10
2019-05-10T09:30:14.204Z,12.70
2019-05-10T09:32:43.441Z,12.80
2019-05-10T09:35:12.770Z,12.90
2019-05-10T09:37:42.089Z,13.00
2019-05-10T09:40:13.323Z,12.80
2019-05-10T09:42:43.706Z,12.90
2019-05-10T09:45:12.910Z,12.90
2019-05-10T09:47:43.423Z,12.90
2019-05-10T09:50:12.648Z,12.70
2019-05-10T09:52:41.555Z,12.80
2019-05-10T09:55:14.830Z,12.60
2019-05-10T09:57:40.948Z,12.40
2019-05-10T10:00:10.077Z,12.40
2019-05-10T10:02:40.524Z,12.40
2019-05-10T10:05:09.556Z,12.50
2019-05-10T10:07:38.665Z,12.70
2019-05-10T10:10:07.527Z,13.00
2019-05-10T10:12:37.695Z,13.40
2019-05-10T10:15:09.245Z,13.30
2019-05-10T10:17:41.918Z,13.10
2019-05-10T10:20:08.578Z,12.80
2019-05-10T10:22:38.105Z,12.70
2019-05-10T10:25:07.640Z,12.30
2019-05-10T10:27:37.162Z,12.10
2019-05-10T10:30:06.533Z,12.20
2019-05-10T10:32:37.637Z,12.20
2019-05-10T10:35:07.863Z,12.20
2019-05-10T10:37:37.938Z,12.00
2019-05-10T10:40:08.747Z,12.10
2019-05-10T10:42:38.032Z,12.20
2019-05-10T10:45:07.406Z,12.30
2019-05-10T10:47:38.194Z,12.30
2019-05-10T10:50:09.059Z,12.50
2019-05-10T10:52:37.631Z,12.50
2019-05-10T10:55:11.071Z,12.60
2019-05-10T10:57:37.458Z,12.60
2019-05-10T11:00:07.633Z,12.70
2019-05-10T11:02:36.123Z,12.70
2019-05-10T11:05:04.622Z,12.70
2019-05-10T11:07:35.763Z,12.70
2019-05-10T11:10:14.964Z,12.80
2019-05-10T11:12:33.776Z,12.80
2019-05-10T11:15:02.224Z,12.70
2019-05-10T11:17:30.820Z,12.50
2019-05-10T11:20:00.606Z,12.60
2019-05-10T11:22:31.577Z,12.60
2019-05-10T11:25:06.745Z,12.40
2019-05-10T11:27:30.969Z,12.50
2019-05-10T11:30:00.956Z,12.60
2019-05-10T11:32:31.497Z,12.70
2019-05-10T11:35:00.153Z,12.80
2019-05-10T11:37:32.805Z,12.70
2019-05-10T11:40:01.485Z,12.70
2019-05-10T11:42:31.019Z,12.80
2019-05-10T11:45:00.788Z,13.00
2019-05-10T11:47:31.260Z,13.10
2019-05-10T11:50:05.825Z,13.00
2019-05-10T11:52:34.728Z,12.70
2019-05-10T11:55:01.260Z,12.70
2019-05-10T11:57:32.860Z,12.50
2019-05-10T12:00:00.088Z,12.00
2019-05-10T12:02:43.250Z,11.90
2019-05-10T12:05:11.023Z,11.90
2019-05-10T12:07:35.372Z,11.90
2019-05-10T12:10:08.285Z,11.80
2019-05-10T12:12:50.076Z,11.90
2019-05-10T12:15:04.289Z,12.00
2019-05-10T12:17:31.067Z,12.10
2019-05-10T12:20:02.255Z,12.10
2019-05-10T12:22:38.272Z,12.10
2019-05-10T12:25:18.716Z,12.20
2019-05-10T12:27:44.089Z,12.30
2019-05-10T12:30:03.095Z,12.30
2019-05-10T12:32:35.237Z,12.40
2019-05-10T12:35:01.449Z,12.30
2019-05-10T12:37:30.799Z,12.40
2019-05-10T12:40:09.049Z,12.20
2019-05-10T12:42:31.522Z,12.30
2019-05-10T12:45:01.249Z,12.50
2019-05-10T12:47:30.588Z,12.80
2019-05-10T12:50:02.189Z,12.90
2019-05-10T12:52:31.981Z,12.90
2019-05-10T12:54:59.758Z,12.70
2019-05-10T12:57:28.061Z,12.90
2019-05-10T12:59:56.400Z,13.30
2019-05-10T13:02:24.780Z,13.50
2019-05-10T13:04:54.371Z,13.60
2019-05-10T13:07:22.771Z,13.80
2019-05-10T13:10:02.487Z,13.80
2019-05-10T13:12:22.954Z,13.60
2019-05-10T13:14:52.823Z,13.70
2019-05-10T13:17:23.353Z,13.90
2019-05-10T13:19:52.899Z,14.10
2019-05-10T13:22:22.354Z,14.00
2019-05-10T13:24:51.115Z,14.10
2019-05-10T13:27:19.505Z,13.80
2019-05-10T13:29:53.306Z,13.80
2019-05-10T13:32:20.697Z,13.70
2019-05-10T13:34:50.577Z,13.70
2019-05-10T13:37:23.534Z,13.60
2019-05-10T13:39:49.543Z,13.50
2019-05-10T13:42:18.745Z,13.40
2019-05-10T13:44:47.158Z,13.30
2019-05-10T13:47:15.710Z,13.30
2019-05-10T13:49:47.879Z,13.10
2019-05-10T13:52:15.608Z,12.90
2019-05-10T13:54:44.138Z,12.80
2019-05-10T13:57:19.855Z,12.70
2019-05-10T13:59:48.958Z,12.70
2019-05-10T14:02:22.319Z,12.30
2019-05-10T14:04:48.499Z,12.30
2019-05-10T14:07:16.921Z,12.30
2019-05-10T14:09:45.296Z,12.50
2019-05-10T14:12:16.049Z,12.50
2019-05-10T14:14:44.671Z,12.60
2019-05-10T14:17:13.162Z,12.60
2019-05-10T14:19:41.790Z,12.50
2019-05-10T14:22:11.342Z,12.60
2019-05-10T14:24:39.784Z,12.80
2019-05-10T14:27:09.424Z,12.90
2019-05-10T14:29:37.868Z,13.10
2019-05-10T14:32:06.376Z,13.30
2019-05-10T14:34:38.003Z,13.50
2019-05-10T14:37:05.272Z,13.70
2019-05-10T14:39:33.598Z,13.80
2019-05-10T14:42:01.930Z,13.80
2019-05-10T14:44:30.313Z,13.70
2019-05-10T14:46:58.733Z,13.90
2019-05-10T14:49:27.094Z,13.90
2019-05-10T14:51:59.685Z,13.70
2019-05-10T14:54:42.279Z,13.60
2019-05-10T14:56:57.868Z,13.50
2019-05-10T14:59:26.539Z,13.60
2019-05-10T15:01:55.859Z,13.70
2019-05-10T15:04:44.513Z,13.90
2019-05-10T15:06:56.423Z,14.10
2019-05-10T15:09:26.117Z,14.00
2019-05-10T15:11:54.634Z,14.00
2019-05-10T15:14:23.302Z,14.00
2019-05-10T15:16:51.683Z,14.10
2019-05-10T15:19:20.420Z,14.20
2019-05-10T15:21:49.305Z,14.30
2019-05-10T15:24:17.769Z,14.10
2019-05-10T15:26:46.294Z,14.20
2019-05-10T15:29:21.804Z,14.30
2019-05-10T15:31:44.897Z,14.60
2019-05-10T15:34:13.221Z,14.60
2019-05-10T15:36:41.542Z,14.50
2019-05-10T15:39:09.913Z,14.60
2019-05-10T15:41:38.728Z,14.80
2019-05-10T15:44:08.137Z,14.90
2019-05-10T15:46:41.792Z,15.00
2019-05-10T15:49:07.605Z,15.10
2019-05-10T15:51:36.862Z,14.90
2019-05-10T15:54:07.611Z,14.70
2019-05-10T15:56:41.359Z,14.70
2019-05-10T15:59:12.647Z,14.80
2019-05-10T16:01:39.453Z,14.60
2019-05-10T16:04:07.998Z,14.60
2019-05-10T16:06:37.612Z,14.70
2019-05-10T16:09:16.978Z,14.60
2019-05-10T16:11:37.237Z,14.40
2019-05-10T16:14:06.123Z,14.40
2019-05-10T16:16:37.038Z,14.60
2019-05-10T16:19:04.503Z,14.70
2019-05-10T16:21:33.092Z,14.80
2019-05-10T16:24:03.185Z,14.80
2019-05-10T16:26:31.531Z,15.00
2019-05-10T16:29:02.213Z,15.00
2019-05-10T16:31:29.943Z,14.80
2019-05-10T16:33:58.373Z,14.70
2019-05-10T16:36:28.328Z,14.50
2019-05-10T16:39:00.733Z,14.30
2019-05-10T16:41:28.412Z,14.30
2019-05-10T16:43:57.846Z,14.20
2019-05-10T16:46:27.177Z,14.20
2019-05-10T16:48:56.494Z,14.20
2019-05-10T16:51:25.103Z,14.20
2019-05-10T16:53:53.630Z,14.10
2019-05-10T16:56:22.037Z,14.10
2019-05-10T16:58:53.104Z,14.20
2019-05-10T17:01:24.945Z,14.10
2019-05-10T17:03:59.636Z,13.90
2019-05-10T17:06:23.375Z,13.80
2019-05-10T17:08:51.837Z,13.50
2019-05-10T17:11:21.499Z,13.20
2019-05-10T17:13:49.919Z,13.00
2019-05-10T17:16:18.916Z,12.80
2019-05-10T17:18:49.753Z,12.80
2019-05-10T17:21:18.626Z,12.80
2019-05-10T17:23:49.411Z,12.70
2019-05-10T17:26:17.881Z,12.60
2019-05-10T17:28:46.348Z,12.60
2019-05-10T17:31:14.848Z,12.70
2019-05-10T17:33:44.389Z,12.60
2019-05-10T17:36:14.615Z,12.70
2019-05-10T17:38:47.357Z,12.60
2019-05-10T17:41:14.441Z,12.60
2019-05-10T17:43:43.301Z,12.50
2019-05-10T17:46:12.620Z,12.50
2019-05-10T17:48:47.322Z,12.40
2019-05-10T17:51:12.097Z,12.40
2019-05-10T17:53:40.496Z,12.30
2019-05-10T17:56:09.294Z,12.30
2019-05-10T17:58:39.883Z,12.20
2019-05-10T18:01:08.676Z,12.10
2019-05-10T18:03:37.156Z,12.00
2019-05-10T18:06:06.025Z,11.90
2019-05-10T18:08:34.884Z,11.80
2019-05-10T18:11:04.369Z,11.70
2019-05-10T18:13:35.493Z,11.60
2019-05-10T18:16:09.498Z,11.50
2019-05-10T18:18:45.651Z,11.50
2019-05-10T18:21:06.014Z,11.40
2019-05-10T18:23:34.831Z,11.40
2019-05-10T18:26:03.304Z,11.40
2019-05-10T18:28:31.919Z,11.50
2019-05-10T18:31:00.427Z,11.30
2019-05-10T18:33:28.874Z,11.30
2019-05-10T18:35:57.821Z,11.30
2019-05-10T18:38:30.935Z,11.20
2019-05-10T18:40:56.512Z,11.10
2019-05-10T18:43:25.324Z,11.10
2019-05-10T18:45:54.027Z,11.00
2019-05-10T18:48:22.497Z,11.00
2019-05-10T18:50:50.967Z,11.10
2019-05-10T18:53:19.589Z,11.00
2019-05-10T18:55:48.052Z,11.00
2019-05-10T18:58:16.719Z,11.00
2019-05-10T19:00:45.356Z,11.10
2019-05-10T19:03:13.847Z,11.10
2019-05-10T19:05:43.797Z,11.10
2019-05-10T19:08:12.261Z,11.20
2019-05-10T19:10:42.474Z,11.20
2019-05-10T19:13:13.668Z,11.20
2019-05-10T19:15:46.074Z,11.30
2019-05-10T19:18:17.903Z,11.30
2019-05-10T19:20:53.468Z,11.30
2019-05-10T19:23:21.583Z,11.30
2019-05-10T19:25:53.806Z,11.30
2019-05-10T19:28:26.830Z,11.20
2019-05-10T19:31:00.225Z,11.10
2019-05-10T19:33:35.998Z,11.10
2019-05-10T19:36:01.357Z,11.10
2019-05-10T19:38:30.349Z,11.00
2019-05-10T19:41:00.424Z,10.90
2019-05-10T19:43:30.415Z,10.80
2019-05-10T19:45:59.939Z,10.70
2019-05-10T19:48:29.256Z,10.60
2019-05-10T19:51:02.826Z,10.70
2019-05-10T19:53:36.490Z,10.70
2019-05-10T19:56:04.145Z,10.60
2019-05-10T19:58:36.601Z,10.50
2019-05-10T20:01:08.582Z,10.50
2019-05-10T20:03:40.819Z,10.50
2019-05-10T20:06:10.784Z,10.50
2019-05-10T20:08:42.828Z,10.60
2019-05-10T20:11:11.707Z,10.50
2019-05-10T20:13:42.512Z,10.50
2019-05-10T20:16:15.032Z,10.50
2019-05-10T20:18:48.358Z,10.60
2019-05-10T20:21:20.594Z,10.70
2019-05-10T20:23:52.408Z,10.70
2019-05-10T20:26:25.917Z,10.80
2019-05-10T20:28:55.320Z,10.70
2019-05-10T20:31:23.832Z,10.80
2019-05-10T20:33:52.415Z,10.70
2019-05-10T20:36:20.867Z,10.70
2019-05-10T20:38:50.138Z,10.60
2019-05-10T20:41:19.053Z,10.50
2019-05-10T20:43:48.435Z,10.50
2019-05-10T20:46:18.164Z,10.40
2019-05-10T20:48:47.144Z,10.40
2019-05-10T20:51:22.589Z,10.30
2019-05-10T20:54:00.693Z,10.30
2019-05-10T20:56:29.125Z,10.20
2019-05-10T20:58:58.031Z,10.10
2019-05-10T21:01:29.294Z,10.00
2019-05-10T21:03:57.952Z,9.90
2019-05-10T21:06:26.843Z,9.90
2019-05-10T21:08:59.155Z,9.80
2019-05-10T21:11:31.016Z,9.70
2019-05-10T21:13:59.430Z,9.60
2019-05-10T21:16:27.799Z,9.60
2019-05-10T21:18:56.157Z,9.50
2019-05-10T21:21:24.467Z,9.50
2019-05-10T21:23:52.844Z,9.50
2019-05-10T21:26:21.251Z,9.50
2019-05-10T21:28:49.655Z,9.40
2019-05-10T21:31:17.984Z,9.40
2019-05-10T21:33:46.336Z,9.40
2019-05-10T21:36:14.638Z,9.40
2019-05-10T21:38:43.098Z,9.40
2019-05-10T21:41:11.419Z,9.40
2019-05-10T21:43:40.134Z,9.40
2019-05-10T21:46:10.736Z,9.30
2019-05-10T21:48:39.006Z,9.20
2019-05-10T21:51:07.306Z,9.00
2019-05-10T21:53:36.039Z,9.00
2019-05-10T21:56:04.345Z,9.00
2019-05-10T21:58:32.607Z,9.00
2019-05-10T22:01:02.142Z,8.90
2019-05-10T22:03:30.503Z,8.90
2019-05-10T22:05:58.836Z,8.90
2019-05-10T22:08:27.397Z,8.90
2019-05-10T22:10:55.847Z,8.80
2019-05-10T22:13:24.150Z,8.80
2019-05-10T22:15:52.460Z,8.80
2019-05-10T22:18:21.832Z,8.80
2019-05-10T22:20:50.111Z,8.70
2019-05-10T22:23:18.408Z,8.70
2019-05-10T22:25:46.759Z,8.60
2019-05-10T22:28:15.029Z,8.60
2019-05-10T22:30:43.449Z,8.60
2019-05-10T22:33:11.757Z,8.50
2019-05-10T22:35:40.070Z,8.50
2019-05-10T22:38:08.437Z,8.50
2019-05-10T22:40:37.712Z,8.50
2019-05-10T22:43:06.241Z,8.40
2019-05-10T22:45:34.541Z,8.40
2019-05-10T22:48:02.807Z,8.50
2019-05-10T22:50:31.080Z,8.50
2019-05-10T22:52:59.311Z,8.60
2019-05-10T22:55:27.562Z,8.50
2019-05-10T22:57:56.164Z,8.50
2019-05-10T23:00:24.563Z,8.50
2019-05-10T23:02:52.791Z,8.40
2019-05-10T23:05:21.052Z,8.40
2019-05-10T23:07:49.330Z,8.40
2019-05-10T23:10:17.761Z,8.30
2019-05-10T23:12:46.006Z,8.30
2019-05-10T23:15:14.245Z,8.30
2019-05-10T23:17:43.488Z,8.30
2019-05-10T23:20:12.737Z,8.30
2019-05-10T23:22:41.006Z,8.30
2019-05-10T23:25:09.264Z,8.40
2019-05-10T23:27:37.515Z,8.50
2019-05-10T23:30:05.859Z,8.50
2019-05-10T23:32:34.082Z,8.40
2019-05-10T23:35:02.347Z,8.40
2019-05-10T23:37:30.691Z,8.40
2019-05-10T23:39:58.937Z,8.50
2019-05-10T23:42:27.338Z,8.50
2019-05-10T23:44:55.561Z,8.40
2019-05-10T23:47:23.846Z,8.40
2019-05-10T23:49:52.087Z,8.40
2019-05-10T23:52:20.362Z,8.40
2019-05-10T23:54:48.594Z,8.40
2019-05-10T23:57:16.923Z,8.40
2019-05-10T23:59:46.416Z,8.40
